createdAt,value
2018-04-26T00:00:41.473Z,2.77
2018-04-26T00:03:07.684Z,2.53
2018-04-26T00:05:33.944Z,2.03
2018-04-26T00:08:00.208Z,2.37
2018-04-26T00:10:26.435Z,2.93
2018-04-26T00:12:53.428Z,2.20
2018-04-26T00:15:19.696Z,2.43
2018-04-26T00:17:45.971Z,2.17
2018-04-26T00:20:12.274Z,2.20
2018-04-26T00:22:38.493Z,2.10
2018-04-26T00:25:05.341Z,2.03
2018-04-26T00:27:32.443Z,2.30
2018-04-26T00:29:58.729Z,1.90
2018-04-26T00:32:25.671Z,2.07
2018-04-26T00:34:53.016Z,1.70
2018-04-26T00:37:19.283Z,2.10
2018-04-26T00:39:45.499Z,2.70
2018-04-26T00:42:12.487Z,1.80
2018-04-26T00:44:39.448Z,1.67
2018-04-26T00:47:05.699Z,1.70
2018-04-26T00:49:31.958Z,2.77
2018-04-26T00:52:00.102Z,1.57
2018-04-26T00:54:26.344Z,1.80
2018-04-26T00:56:52.647Z,1.97
2018-04-26T00:59:18.905Z,1.67
2018-04-26T01:01:45.149Z,1.60
2018-04-26T01:04:11.420Z,1.70
2018-04-26T01:06:37.778Z,1.57
2018-04-26T01:09:04.060Z,1.73
2018-04-26T01:11:30.289Z,1.80
2018-04-26T01:13:56.540Z,1.50
2018-04-26T01:16:22.843Z,2.13
2018-04-26T01:18:49.245Z,1.70
2018-04-26T01:21:15.467Z,1.67
2018-04-26T01:23:41.725Z,1.77
2018-04-26T01:26:08.029Z,1.67
2018-04-26T01:28:35.190Z,1.60
2018-04-26T01:31:02.225Z,1.77
2018-04-26T01:33:28.432Z,1.60
2018-04-26T01:35:56.372Z,1.50
2018-04-26T01:38:22.606Z,1.30
2018-04-26T01:40:49.559Z,1.50
2018-04-26T01:43:16.521Z,2.03
2018-04-26T01:45:42.556Z,2.20
2018-04-26T01:48:09.505Z,2.40
2018-04-26T01:50:35.536Z,2.17
2018-04-26T01:53:01.752Z,2.30
2018-04-26T01:55:27.985Z,1.60
2018-04-26T01:57:54.228Z,2.63
2018-04-26T02:00:20.679Z,2.33
2018-04-26T02:02:46.919Z,2.20
2018-04-26T02:05:13.160Z,3.13
2018-04-26T02:07:40.237Z,1.67
2018-04-26T02:10:06.449Z,2.80
2018-04-26T02:12:32.752Z,1.97
2018-04-26T02:14:58.996Z,2.27
2018-04-26T02:17:25.939Z,2.00
2018-04-26T02:19:52.205Z,2.80
2018-04-26T02:22:18.415Z,2.10
2018-04-26T02:24:45.383Z,2.07
2018-04-26T02:27:11.633Z,2.53
2018-04-26T02:29:38.573Z,2.13
2018-04-26T02:32:04.777Z,2.43
2018-04-26T02:34:31.759Z,2.70
2018-04-26T02:36:58.737Z,2.40
2018-04-26T02:39:24.977Z,3.00
2018-04-26T02:41:51.274Z,3.50
2018-04-26T02:44:17.516Z,2.60
2018-04-26T02:46:45.119Z,2.80
2018-04-26T02:49:11.140Z,3.93
2018-04-26T02:51:37.899Z,2.93
2018-04-26T02:54:04.728Z,3.10
2018-04-26T02:56:30.766Z,2.73
2018-04-26T02:58:56.792Z,2.97
2018-04-26T03:01:22.838Z,3.03
2018-04-26T03:03:49.038Z,3.97
2018-04-26T03:06:15.269Z,3.57
2018-04-26T03:08:42.232Z,3.63
2018-04-26T03:11:08.264Z,3.10
2018-04-26T03:13:35.209Z,3.30
2018-04-26T03:16:02.295Z,3.80
2018-04-26T03:18:28.512Z,4.40
2018-04-26T03:20:54.771Z,3.63
2018-04-26T03:23:21.017Z,3.40
2018-04-26T03:25:47.238Z,3.73
2018-04-26T03:28:14.244Z,3.47
2018-04-26T03:30:40.480Z,3.50
2018-04-26T03:33:06.702Z,3.10
2018-04-26T03:35:32.940Z,3.77
2018-04-26T03:38:00.824Z,3.83
2018-04-26T03:40:27.040Z,3.80
2018-04-26T03:42:53.987Z,4.20
2018-04-26T03:45:20.183Z,5.40
2018-04-26T03:47:46.407Z,5.90
2018-04-26T03:50:12.674Z,5.10
2018-04-26T03:52:39.671Z,5.97
2018-04-26T03:55:05.920Z,7.23
2018-04-26T03:57:32.149Z,7.50
2018-04-26T04:00:11.641Z,7.10
2018-04-26T04:02:50.243Z,5.70
2018-04-26T04:05:29.788Z,6.17
2018-04-26T04:07:56.124Z,6.83
2018-04-26T04:10:22.395Z,6.03
2018-04-26T04:12:48.628Z,5.60
2018-04-26T04:15:14.845Z,6.87
2018-04-26T04:17:41.815Z,6.07
2018-04-26T04:20:08.108Z,6.17
2018-04-26T04:22:34.343Z,6.47
2018-04-26T04:25:00.588Z,6.33
2018-04-26T04:27:26.803Z,6.60
2018-04-26T04:29:53.047Z,6.00
2018-04-26T04:32:19.251Z,7.73
2018-04-26T04:34:45.488Z,6.97
2018-04-26T04:37:12.465Z,6.63
2018-04-26T04:39:38.710Z,5.73
2018-04-26T04:42:05.096Z,6.70
2018-04-26T04:44:31.328Z,6.90
2018-04-26T04:46:57.555Z,7.93
2018-04-26T04:49:23.773Z,7.23
2018-04-26T04:51:50.028Z,5.63
2018-04-26T04:54:16.275Z,6.50
2018-04-26T04:56:42.504Z,6.00
2018-04-26T04:59:08.709Z,5.87
2018-04-26T05:01:35.736Z,7.00
2018-04-26T05:04:01.940Z,6.20
2018-04-26T05:06:28.884Z,5.97
2018-04-26T05:08:55.167Z,5.57
2018-04-26T05:11:21.396Z,6.10
2018-04-26T05:13:47.716Z,6.40
2018-04-26T05:16:13.880Z,6.10
2018-04-26T05:18:40.317Z,7.30
2018-04-26T05:21:09.296Z,10.37
2018-04-26T05:23:36.532Z,5.77
2018-04-26T05:26:02.780Z,6.03
2018-04-26T05:28:29.038Z,7.17
2018-04-26T05:30:55.293Z,6.63
2018-04-26T05:33:21.506Z,7.10
2018-04-26T05:35:47.715Z,8.43
2018-04-26T05:38:13.916Z,9.53
2018-04-26T05:40:40.216Z,8.00
2018-04-26T05:43:07.120Z,9.10
2018-04-26T05:45:33.357Z,10.10
2018-04-26T05:47:59.636Z,10.90
2018-04-26T05:50:25.893Z,11.40
2018-04-26T05:52:52.171Z,12.20
2018-04-26T05:55:19.168Z,7.10
2018-04-26T05:57:45.411Z,6.00
2018-04-26T06:00:11.664Z,5.90
2018-04-26T06:02:37.885Z,4.80
2018-04-26T06:05:04.104Z,3.75
2018-04-26T06:07:30.344Z,4.60
2018-04-26T06:09:56.585Z,3.12
2018-04-26T06:12:22.807Z,2.40
2018-04-26T06:14:49.060Z,3.30
2018-04-26T06:17:15.357Z,3.10
2018-04-26T06:19:42.336Z,3.12
2018-04-26T06:22:08.585Z,4.15
2018-04-26T06:24:34.900Z,4.80
2018-04-26T06:27:01.892Z,4.47
2018-04-26T06:29:28.231Z,4.95
2018-04-26T06:31:54.523Z,5.75
2018-04-26T06:34:20.773Z,7.05
2018-04-26T06:36:47.064Z,6.93
2018-04-26T06:39:13.255Z,7.07
2018-04-26T06:41:39.480Z,7.05
2018-04-26T06:44:05.728Z,6.53
2018-04-26T06:46:32.692Z,6.00
2018-04-26T06:48:58.923Z,6.72
2018-04-26T06:51:25.169Z,3.95
2018-04-26T06:53:51.480Z,5.70
2018-04-26T06:56:17.719Z,4.22
2018-04-26T06:58:43.964Z,5.03
2018-04-26T07:01:10.216Z,4.23
2018-04-26T07:03:36.492Z,4.30
2018-04-26T07:06:02.712Z,3.60
2018-04-26T07:08:28.943Z,3.43
2018-04-26T07:10:55.164Z,3.83
2018-04-26T07:13:21.389Z,4.90
2018-04-26T07:15:47.632Z,3.47
2018-04-26T07:18:16.333Z,3.25
2018-04-26T07:20:42.676Z,4.20
2018-04-26T07:23:08.916Z,3.70
2018-04-26T07:25:35.167Z,3.87
2018-04-26T07:28:01.404Z,4.00
2018-04-26T07:30:28.454Z,5.40
2018-04-26T07:32:56.551Z,6.00
2018-04-26T07:35:26.214Z,6.13
2018-04-26T07:37:52.432Z,7.20
2018-04-26T07:40:18.651Z,7.10
2018-04-26T07:42:44.908Z,7.80
2018-04-26T07:45:11.140Z,7.73
2018-04-26T07:47:37.375Z,7.73
2018-04-26T07:50:06.921Z,7.50
2018-04-26T07:52:33.155Z,7.93
2018-04-26T07:54:59.405Z,9.37
2018-04-26T07:57:25.634Z,9.10
2018-04-26T07:59:52.589Z,9.13
2018-04-26T08:02:19.041Z,10.07
2018-04-26T08:04:45.316Z,9.30
2018-04-26T08:07:11.540Z,10.60
2018-04-26T08:09:43.851Z,11.53
2018-04-26T08:12:10.088Z,10.57
2018-04-26T08:14:36.324Z,10.23
2018-04-26T08:17:02.752Z,10.80
2018-04-26T08:19:29.707Z,11.63
2018-04-26T08:21:56.684Z,10.93
2018-04-26T08:24:27.537Z,11.73
2018-04-26T08:26:53.580Z,11.67
2018-04-26T08:29:19.637Z,12.33
2018-04-26T08:31:45.668Z,12.53
2018-04-26T08:34:11.708Z,12.43
2018-04-26T08:36:37.728Z,12.53
2018-04-26T08:39:03.762Z,12.60
2018-04-26T08:41:29.809Z,13.83
2018-04-26T08:43:58.559Z,13.07
2018-04-26T08:46:24.812Z,12.87
2018-04-26T08:48:51.069Z,13.10
2018-04-26T08:51:17.333Z,14.13
2018-04-26T08:53:43.561Z,15.67
2018-04-26T08:56:09.787Z,14.77
2018-04-26T08:58:35.991Z,13.53
2018-04-26T09:01:04.914Z,13.20
2018-04-26T09:03:33.251Z,13.47
2018-04-26T09:06:00.277Z,13.40
2018-04-26T09:08:27.169Z,13.63
2018-04-26T09:10:53.436Z,12.93
2018-04-26T09:13:19.804Z,12.67
2018-04-26T09:15:46.038Z,11.73
2018-04-26T09:18:17.586Z,11.73
2018-04-26T09:20:43.797Z,10.90
2018-04-26T09:23:09.995Z,11.20
2018-04-26T09:25:36.208Z,10.83
2018-04-26T09:28:02.435Z,9.20
2018-04-26T09:30:29.379Z,8.90
2018-04-26T09:32:56.412Z,7.73
2018-04-26T09:35:23.831Z,8.20
2018-04-26T09:37:51.935Z,7.53
2018-04-26T09:40:17.972Z,7.07
2018-04-26T09:42:43.995Z,7.40
2018-04-26T09:45:10.219Z,7.10
2018-04-26T09:47:37.165Z,7.63
2018-04-26T09:50:03.420Z,8.13
2018-04-26T09:52:29.646Z,8.90
2018-04-26T09:54:59.393Z,9.70
2018-04-26T09:57:26.014Z,8.83
2018-04-26T09:59:52.992Z,10.10
2018-04-26T10:02:24.074Z,10.70
2018-04-26T10:04:54.223Z,12.37
2018-04-26T10:07:20.475Z,12.43
2018-04-26T10:09:46.679Z,11.43
2018-04-26T10:12:17.897Z,11.10
2018-04-26T10:14:44.862Z,10.20
2018-04-26T10:17:11.822Z,10.70
2018-04-26T10:19:38.687Z,9.43
2018-04-26T10:22:04.784Z,9.60
2018-04-26T10:24:31.011Z,8.47
2018-04-26T10:26:57.242Z,9.00
2018-04-26T10:29:23.467Z,9.67
2018-04-26T10:31:51.803Z,10.30
2018-04-26T10:34:18.026Z,9.60
2018-04-26T10:36:44.273Z,10.63
2018-04-26T10:39:10.503Z,10.23
2018-04-26T10:41:36.756Z,10.30
2018-04-26T10:44:02.996Z,9.17
2018-04-26T10:46:30.069Z,7.20
2018-04-26T10:48:56.293Z,7.40
2018-04-26T10:51:23.931Z,7.90
2018-04-26T10:53:50.156Z,8.03
2018-04-26T10:56:16.482Z,7.70
2018-04-26T10:58:42.696Z,6.77
2018-04-26T11:01:09.000Z,6.43
2018-04-26T11:03:35.296Z,6.93
2018-04-26T11:06:02.319Z,5.73
2018-04-26T11:08:30.116Z,6.10
2018-04-26T11:10:56.376Z,6.93
2018-04-26T11:13:22.612Z,5.90
2018-04-26T11:15:48.891Z,6.30
2018-04-26T11:18:15.132Z,6.13
2018-04-26T11:20:41.385Z,5.90
2018-04-26T11:23:07.649Z,6.20
2018-04-26T11:25:33.884Z,4.57
2018-04-26T11:28:01.757Z,4.80
2018-04-26T11:30:27.992Z,5.27
2018-04-26T11:32:54.245Z,4.90
2018-04-26T11:35:20.448Z,5.57
2018-04-26T11:37:46.707Z,5.50
2018-04-26T11:40:13.029Z,5.27
2018-04-26T11:42:39.211Z,4.70
2018-04-26T11:45:05.471Z,4.77
2018-04-26T11:47:35.207Z,5.87
2018-04-26T11:50:01.446Z,5.00
2018-04-26T11:52:27.769Z,5.17
2018-04-26T11:54:53.988Z,6.43
2018-04-26T11:57:20.236Z,5.23
2018-04-26T11:59:47.211Z,4.50
2018-04-26T12:02:13.509Z,3.73
2018-04-26T12:04:44.385Z,4.50
2018-04-26T12:07:10.615Z,4.90
2018-04-26T12:09:36.854Z,4.57
2018-04-26T12:12:03.084Z,5.23
2018-04-26T12:14:29.384Z,6.10
2018-04-26T12:16:55.608Z,5.20
2018-04-26T12:19:21.823Z,4.20
2018-04-26T12:21:50.289Z,3.70
2018-04-26T12:24:16.532Z,3.90
2018-04-26T12:26:42.754Z,3.70
2018-04-26T12:29:08.990Z,4.33
2018-04-26T12:31:35.261Z,4.27
2018-04-26T12:34:02.239Z,5.50
2018-04-26T12:36:34.696Z,4.37
2018-04-26T12:39:00.960Z,4.10
2018-04-26T12:41:27.193Z,4.50
2018-04-26T12:43:54.276Z,4.80
2018-04-26T12:46:20.500Z,4.03
2018-04-26T12:48:46.741Z,4.80
2018-04-26T12:51:12.963Z,5.10
2018-04-26T12:53:42.496Z,4.40
2018-04-26T12:56:08.765Z,4.80
2018-04-26T12:58:35.040Z,6.77
2018-04-26T13:01:01.300Z,6.03
2018-04-26T13:03:28.340Z,5.90
2018-04-26T13:05:54.660Z,5.00
2018-04-26T13:08:21.637Z,4.63
2018-04-26T13:10:51.944Z,4.77
2018-04-26T13:13:19.197Z,4.70
2018-04-26T13:15:45.443Z,5.37
2018-04-26T13:18:11.655Z,4.93
2018-04-26T13:20:37.868Z,6.40
2018-04-26T13:23:04.216Z,8.00
2018-04-26T13:25:30.559Z,7.23
2018-04-26T13:28:00.282Z,6.70
2018-04-26T13:30:26.610Z,7.07
2018-04-26T13:32:53.086Z,7.33
2018-04-26T13:35:19.537Z,6.80
2018-04-26T13:37:46.682Z,6.90
2018-04-26T13:40:13.220Z,6.63
2018-04-26T13:45:13.120Z,7.20
2018-04-26T13:47:39.352Z,6.23
2018-04-26T13:50:05.567Z,6.13
2018-04-26T13:52:31.817Z,5.93
2018-04-26T13:54:58.092Z,6.33
2018-04-26T13:57:29.396Z,6.83
2018-04-26T13:59:55.669Z,6.60
2018-04-26T14:02:21.959Z,6.10
2018-04-26T14:04:48.192Z,6.33
2018-04-26T14:07:15.184Z,4.20
2018-04-26T14:09:42.173Z,5.43
2018-04-26T14:12:08.468Z,6.10
2018-04-26T14:14:34.667Z,5.30
2018-04-26T14:17:03.176Z,5.70
2018-04-26T14:19:29.567Z,4.77
2018-04-26T14:21:55.864Z,4.67
2018-04-26T14:24:22.125Z,4.63
2018-04-26T14:26:48.377Z,4.23
2018-04-26T14:29:14.641Z,4.33
2018-04-26T14:31:40.872Z,4.63
2018-04-26T14:34:07.095Z,3.50
2018-04-26T14:36:34.782Z,3.50
2018-04-26T14:39:01.052Z,2.97
2018-04-26T14:41:27.296Z,3.40
2018-04-26T14:43:54.337Z,3.70
2018-04-26T14:46:20.564Z,3.37
2018-04-26T14:48:46.786Z,4.17
2018-04-26T14:51:13.074Z,3.80
2018-04-26T14:53:40.874Z,3.67
2018-04-26T14:56:07.480Z,4.10
2018-04-26T14:58:33.947Z,4.30
2018-04-26T15:01:00.948Z,4.33
2018-04-26T15:03:27.747Z,4.67
2018-04-26T15:05:59.652Z,3.50
2018-04-26T15:08:26.616Z,4.80
2018-04-26T15:10:53.139Z,4.30
2018-04-26T15:13:20.152Z,4.80
2018-04-26T15:15:46.462Z,4.40
2018-04-26T15:18:13.451Z,5.00
2018-04-26T15:20:40.132Z,4.90
2018-04-26T15:25:18.325Z,5.00
2018-04-26T15:27:45.293Z,5.57
2018-04-26T15:30:11.539Z,5.80
2018-04-26T15:32:40.284Z,5.13
2018-04-26T15:35:06.565Z,5.17
2018-04-26T15:37:32.836Z,5.40
2018-04-26T15:39:59.864Z,4.80
2018-04-26T15:42:26.072Z,5.40
2018-04-26T15:44:52.468Z,5.03
2018-04-26T15:47:18.707Z,4.63
2018-04-26T15:49:44.977Z,4.40
2018-04-26T15:52:11.230Z,4.43
2018-04-26T15:54:49.963Z,5.63
2018-04-26T15:57:30.523Z,5.90
2018-04-26T16:00:09.200Z,7.17
2018-04-26T16:02:57.818Z,5.33
2018-04-26T16:08:38.987Z,5.20
2018-04-26T16:11:21.772Z,6.30
2018-04-26T16:14:05.115Z,5.80
2018-04-26T16:20:16.396Z,4.40
2018-04-26T16:23:01.205Z,3.70
2018-04-26T16:25:40.479Z,3.47
2018-04-26T16:28:25.411Z,2.70
2018-04-26T16:34:19.700Z,2.90
2018-04-26T16:36:58.330Z,2.40
2018-04-26T16:39:24.614Z,2.70
2018-04-26T16:41:51.418Z,2.70
2018-04-26T16:44:17.559Z,2.87
2018-04-26T16:46:43.659Z,2.77
2018-04-26T16:49:10.557Z,2.30
2018-04-26T16:51:37.284Z,2.40
2018-04-26T16:54:03.344Z,2.40
2018-04-26T16:56:29.423Z,3.37
2018-04-26T16:58:55.457Z,3.00
2018-04-26T17:01:21.516Z,3.00
2018-04-26T17:03:47.553Z,2.87
2018-04-26T17:06:14.383Z,3.47
2018-04-26T17:08:40.460Z,4.30
2018-04-26T17:11:06.500Z,3.30
2018-04-26T17:13:32.563Z,3.40
2018-04-26T17:15:58.609Z,2.97
2018-04-26T17:18:25.735Z,3.10
2018-04-26T17:20:51.907Z,3.30
2018-04-26T17:23:17.946Z,2.73
2018-04-26T17:25:44.727Z,3.07
2018-04-26T17:28:10.831Z,3.10
2018-04-26T17:30:37.549Z,2.77
2018-04-26T17:33:03.685Z,2.80
2018-04-26T17:35:29.744Z,2.83
2018-04-26T17:37:55.784Z,2.40
2018-04-26T17:40:21.830Z,2.80
2018-04-26T17:42:47.858Z,2.67
2018-04-26T17:45:13.960Z,2.57
2018-04-26T17:47:40.912Z,3.40
2018-04-26T17:50:07.029Z,2.97
2018-04-26T17:52:33.120Z,3.33
2018-04-26T17:54:59.257Z,3.43
2018-04-26T17:57:25.336Z,3.53
2018-04-26T17:59:51.371Z,4.70
2018-04-26T18:02:17.870Z,5.57
2018-04-26T18:04:44.205Z,7.03
2018-04-26T18:07:10.520Z,6.40
2018-04-26T18:09:37.512Z,8.43
2018-04-26T18:12:03.728Z,8.23
2018-04-26T18:14:30.753Z,9.97
2018-04-26T18:16:57.045Z,8.70
2018-04-26T18:19:23.329Z,8.53
2018-04-26T18:21:49.596Z,9.43
2018-04-26T18:24:16.607Z,9.57
2018-04-26T18:26:42.885Z,8.90
2018-04-26T18:29:09.895Z,9.10
2018-04-26T18:31:36.222Z,9.27
2018-04-26T18:34:02.465Z,14.73
2018-04-26T18:36:28.744Z,12.80
2018-04-26T18:38:54.952Z,11.27
2018-04-26T18:41:21.243Z,13.40
2018-04-26T18:43:47.477Z,13.03
2018-04-26T18:46:13.781Z,14.27
2018-04-26T18:48:40.135Z,12.80
2018-04-26T18:51:06.435Z,13.00
2018-04-26T18:53:32.669Z,11.57
2018-04-26T18:55:59.659Z,12.10
2018-04-26T18:58:25.965Z,12.77
2018-04-26T19:00:52.984Z,14.20
2018-04-26T19:03:19.249Z,15.80
2018-04-26T19:05:45.496Z,13.10
2018-04-26T19:08:12.575Z,15.33
2018-04-26T19:10:39.512Z,15.70
2018-04-26T19:13:06.442Z,17.13
2018-04-26T19:15:33.496Z,17.07
2018-04-26T19:17:59.569Z,17.50
2018-04-26T19:20:25.816Z,18.27
2018-04-26T19:22:53.299Z,16.07
2018-04-26T19:25:20.364Z,17.37
2018-04-26T19:27:46.755Z,19.40
2018-04-26T19:30:13.085Z,21.50
2018-04-26T19:32:40.072Z,21.80
2018-04-26T19:35:06.320Z,20.93
2018-04-26T19:37:33.360Z,19.90
2018-04-26T19:39:59.667Z,20.57
2018-04-26T19:42:26.647Z,20.33
2018-04-26T19:44:52.951Z,19.70
2018-04-26T19:47:19.951Z,18.83
2018-04-26T19:49:46.940Z,21.13
2018-04-26T19:52:13.236Z,19.43
2018-04-26T19:54:39.551Z,19.40
2018-04-26T19:57:05.829Z,19.23
2018-04-26T19:59:33.022Z,19.83
2018-04-26T20:01:59.393Z,19.63
2018-04-26T20:04:25.638Z,21.00
2018-04-26T20:06:51.911Z,20.57
2018-04-26T20:09:18.959Z,19.77
2018-04-26T20:11:45.225Z,19.80
2018-04-26T20:14:11.510Z,20.63
2018-04-26T20:16:37.776Z,20.83
2018-04-26T20:19:04.024Z,20.67
2018-04-26T20:21:30.404Z,21.60
2018-04-26T20:23:56.655Z,22.07
2018-04-26T20:26:23.883Z,20.30
2018-04-26T20:28:50.119Z,20.00
2018-04-26T20:31:16.384Z,20.77
2018-04-26T20:33:44.719Z,20.80
2018-04-26T20:36:11.020Z,20.70
2018-04-26T20:38:37.296Z,21.37
2018-04-26T20:41:03.947Z,19.47
2018-04-26T20:43:30.243Z,19.97
2018-04-26T20:45:56.490Z,20.50
2018-04-26T20:48:35.079Z,19.63
2018-04-26T20:51:01.307Z,20.50
2018-04-26T20:53:27.549Z,19.10
2018-04-26T20:55:53.744Z,18.27
2018-04-26T20:58:19.971Z,19.37
2018-04-26T21:00:46.209Z,18.50
2018-04-26T21:03:13.201Z,17.60
2018-04-26T21:05:39.458Z,15.73
2018-04-26T21:08:05.687Z,16.03
2018-04-26T21:10:31.923Z,16.00
2018-04-26T21:12:58.177Z,17.07
2018-04-26T21:15:24.440Z,14.30
2018-04-26T21:17:50.707Z,16.40
2018-04-26T21:20:17.739Z,14.53
2018-04-26T21:22:44.016Z,13.17
2018-04-26T21:25:10.322Z,15.43
2018-04-26T21:27:36.606Z,14.53
2018-04-26T21:30:02.755Z,14.40
2018-04-26T21:32:29.740Z,15.00
2018-04-26T21:34:55.993Z,15.00
2018-04-26T21:37:22.407Z,14.47
2018-04-26T21:39:48.631Z,15.43
2018-04-26T21:42:14.874Z,12.43
2018-04-26T21:44:42.465Z,12.50
2018-04-26T21:47:09.387Z,13.27
2018-04-26T21:49:36.311Z,13.07
2018-04-26T21:52:09.259Z,12.82
2018-04-26T21:54:41.555Z,12.83
2018-04-26T21:57:14.020Z,12.47
2018-04-26T21:59:46.682Z,12.73
2018-04-26T22:02:19.057Z,11.73
2018-04-26T22:04:46.374Z,12.10
2018-04-26T22:07:12.611Z,12.18
2018-04-26T22:09:38.834Z,12.30
2018-04-26T22:12:05.052Z,11.73
2018-04-26T22:14:31.378Z,12.07
2018-04-26T22:16:57.655Z,11.27
2018-04-26T22:19:23.968Z,11.00
2018-04-26T22:21:50.323Z,10.20
2018-04-26T22:24:16.553Z,10.83
2018-04-26T22:26:42.904Z,10.18
2018-04-26T22:29:09.947Z,10.50
2018-04-26T22:31:36.200Z,10.77
2018-04-26T22:34:02.455Z,11.73
2018-04-26T22:36:32.464Z,10.82
2018-04-26T22:39:01.116Z,11.05
2018-04-26T22:41:27.389Z,11.10
2018-04-26T22:43:53.631Z,11.07
2018-04-26T22:46:19.900Z,9.90
2018-04-26T22:48:46.156Z,11.18
2018-04-26T22:51:12.444Z,9.73
2018-04-26T22:53:38.704Z,10.57
2018-04-26T22:56:05.130Z,9.23
2018-04-26T22:58:31.381Z,9.43
2018-04-26T23:00:57.630Z,10.47
2018-04-26T23:03:23.875Z,8.93
2018-04-26T23:05:50.139Z,9.57
2018-04-26T23:08:16.396Z,8.15
2018-04-26T23:10:42.652Z,8.70
2018-04-26T23:13:09.612Z,8.65
2018-04-26T23:15:35.880Z,8.65
2018-04-26T23:18:02.976Z,10.18
2018-04-26T23:20:30.003Z,8.88
2018-04-26T23:22:56.959Z,8.40
2018-04-26T23:25:23.224Z,9.35
2018-04-26T23:27:50.335Z,8.38
2018-04-26T23:30:16.611Z,9.27
2018-04-26T23:32:42.851Z,9.23
2018-04-26T23:35:09.104Z,8.75
2018-04-26T23:37:35.347Z,9.15
2018-04-26T23:40:01.607Z,9.70
2018-04-26T23:42:28.057Z,9.70
2018-04-26T23:44:54.318Z,8.98
2018-04-26T23:47:20.551Z,8.85
2018-04-26T23:49:47.599Z,9.35
2018-04-26T23:52:14.236Z,8.93
2018-04-26T23:54:40.579Z,9.10
2018-04-26T23:57:06.795Z,9.27
2018-04-26T23:59:33.213Z,8.60
